sensor_id;sensor_type;location;lat;lon;timestamp;P1;durP1;ratioP1;P2;durP2;ratioP2
16957;SDS011;8595;52.542;11.974;2023-05-14T00:02:10;8.73;;;7.78;;
16957;SDS011;8595;52.542;11.974;2023-05-14T00:04:37;8.65;;;7.85;;
16957;SDS011;8595;52.542;11.974;2023-05-14T00:07:05;8.95;;;8.13;;
16957;SDS011;8595;52.542;11.974;2023-05-14T00:09:32;9.98;;;8.57;;
16957;SDS011;8595;52.542;11.974;2023-05-14T00:11:59;9.32;;;7.55;;
16957;SDS011;8595;52.542;11.974;2023-05-14T00:14:26;9.40;;;8.50;;
16957;SDS011;8595;52.542;11.974;2023-05-14T00:16:53;9.50;;;8.15;;
16957;SDS011;8595;52.542;11.974;2023-05-14T00:19:21;9.63;;;8.60;;
16957;SDS011;8595;52.542;11.974;2023-05-14T00:21:48;9.10;;;8.18;;
16957;SDS011;8595;52.542;11.974;2023-05-14T00:24:14;9.50;;;8.20;;
16957;SDS011;8595;52.542;11.974;2023-05-14T00:26:41;10.27;;;8.32;;
16957;SDS011;8595;52.542;11.974;2023-05-14T00:29:08;12.45;;;8.18;;
16957;SDS011;8595;52.542;11.974;2023-05-14T00:31:35;9.68;;;8.68;;
16957;SDS011;8595;52.542;11.974;2023-05-14T00:34:01;9.18;;;8.00;;
16957;SDS011;8595;52.542;11.974;2023-05-14T00:36:30;14.52;;;8.35;;
16957;SDS011;8595;52.542;11.974;2023-05-14T00:38:56;9.65;;;8.52;;
16957;SDS011;8595;52.542;11.974;2023-05-14T00:41:23;11.18;;;8.50;;
16957;SDS011;8595;52.542;11.974;2023-05-14T00:43:50;8.93;;;8.05;;
16957;SDS011;8595;52.542;11.974;2023-05-14T00:46:16;8.27;;;7.57;;
16957;SDS011;8595;52.542;11.974;2023-05-14T00:48:43;11.23;;;8.38;;
16957;SDS011;8595;52.542;11.974;2023-05-14T00:51:10;10.45;;;9.13;;
16957;SDS011;8595;52.542;11.974;2023-05-14T00:53:38;9.70;;;8.63;;
16957;SDS011;8595;52.542;11.974;2023-05-14T00:56:06;9.98;;;8.98;;
16957;SDS011;8595;52.542;11.974;2023-05-14T00:58:33;9.65;;;8.65;;
16957;SDS011;8595;52.542;11.974;2023-05-14T01:01:00;8.60;;;7.80;;
16957;SDS011;8595;52.542;11.974;2023-05-14T01:03:27;9.60;;;8.60;;
16957;SDS011;8595;52.542;11.974;2023-05-14T01:05:57;9.80;;;8.60;;
16957;SDS011;8595;52.542;11.974;2023-05-14T01:08:31;10.65;;;8.40;;
16957;SDS011;8595;52.542;11.974;2023-05-14T01:11:13;11.77;;;8.15;;
16957;SDS011;8595;52.542;11.974;2023-05-14T01:13:50;9.48;;;8.57;;
16957;SDS011;8595;52.542;11.974;2023-05-14T01:16:21;8.88;;;7.93;;
16957;SDS011;8595;52.542;11.974;2023-05-14T01:18:51;8.57;;;7.78;;
16957;SDS011;8595;52.542;11.974;2023-05-14T01:21:32;9.23;;;8.32;;
16957;SDS011;8595;52.542;11.974;2023-05-14T01:24:01;14.88;;;9.63;;
16957;SDS011;8595;52.542;11.974;2023-05-14T01:26:27;9.57;;;8.65;;
16957;SDS011;8595;52.542;11.974;2023-05-14T01:28:57;10.40;;;9.40;;
16957;SDS011;8595;52.542;11.974;2023-05-14T01:31:31;9.10;;;8.10;;
16957;SDS011;8595;52.542;11.974;2023-05-14T01:34:01;10.23;;;8.98;;
16957;SDS011;8595;52.542;11.974;2023-05-14T01:36:31;11.32;;;9.95;;
16957;SDS011;8595;52.542;11.974;2023-05-14T01:38:59;10.13;;;9.13;;
16957;SDS011;8595;52.542;11.974;2023-05-14T01:41:27;12.13;;;9.40;;
16957;SDS011;8595;52.542;11.974;2023-05-14T01:43:56;9.85;;;8.88;;
16957;SDS011;8595;52.542;11.974;2023-05-14T01:46:23;10.52;;;9.45;;
16957;SDS011;8595;52.542;11.974;2023-05-14T01:48:49;12.88;;;10.07;;
16957;SDS011;8595;52.542;11.974;2023-05-14T01:51:16;11.52;;;8.63;;
16957;SDS011;8595;52.542;11.974;2023-05-14T01:53:44;10.32;;;9.32;;
16957;SDS011;8595;52.542;11.974;2023-05-14T01:56:11;9.98;;;8.98;;
16957;SDS011;8595;52.542;11.974;2023-05-14T01:58:37;10.07;;;9.07;;
16957;SDS011;8595;52.542;11.974;2023-05-14T02:01:04;9.98;;;8.90;;
16957;SDS011;8595;52.542;11.974;2023-05-14T02:03:31;9.82;;;8.82;;
16957;SDS011;8595;52.542;11.974;2023-05-14T02:05:59;11.90;;;9.90;;
16957;SDS011;8595;52.542;11.974;2023-05-14T02:08:26;11.10;;;9.98;;
16957;SDS011;8595;52.542;11.974;2023-05-14T02:10:54;12.40;;;10.27;;
16957;SDS011;8595;52.542;11.974;2023-05-14T02:13:20;11.52;;;8.43;;
16957;SDS011;8595;52.542;11.974;2023-05-14T02:15:48;11.60;;;10.00;;
16957;SDS011;8595;52.542;11.974;2023-05-14T02:18:14;10.23;;;9.23;;
16957;SDS011;8595;52.542;11.974;2023-05-14T02:20:41;11.52;;;10.18;;
16957;SDS011;8595;52.542;11.974;2023-05-14T02:23:08;11.77;;;10.07;;
16957;SDS011;8595;52.542;11.974;2023-05-14T02:25:35;10.35;;;9.40;;
16957;SDS011;8595;52.542;11.974;2023-05-14T02:28:03;10.02;;;8.98;;
16957;SDS011;8595;52.542;11.974;2023-05-14T02:30:29;11.43;;;10.32;;
16957;SDS011;8595;52.542;11.974;2023-05-14T02:32:56;10.77;;;9.73;;
16957;SDS011;8595;52.542;11.974;2023-05-14T02:35:23;12.65;;;9.73;;
16957;SDS011;8595;52.542;11.974;2023-05-14T02:37:49;10.85;;;9.73;;
16957;SDS011;8595;52.542;11.974;2023-05-14T02:40:16;12.00;;;10.00;;
16957;SDS011;8595;52.542;11.974;2023-05-14T02:42:43;11.30;;;10.25;;
16957;SDS011;8595;52.542;11.974;2023-05-14T02:45:12;11.98;;;10.88;;
16957;SDS011;8595;52.542;11.974;2023-05-14T02:47:38;11.23;;;9.50;;
16957;SDS011;8595;52.542;11.974;2023-05-14T02:50:06;11.25;;;9.57;;
16957;SDS011;8595;52.542;11.974;2023-05-14T02:52:39;11.02;;;9.90;;
16957;SDS011;8595;52.542;11.974;2023-05-14T02:55:05;10.63;;;9.63;;
16957;SDS011;8595;52.542;11.974;2023-05-14T02:57:33;10.35;;;9.32;;
16957;SDS011;8595;52.542;11.974;2023-05-14T02:59:59;11.57;;;10.35;;
16957;SDS011;8595;52.542;11.974;2023-05-14T03:02:27;12.32;;;10.75;;
16957;SDS011;8595;52.542;11.974;2023-05-14T03:04:54;11.10;;;9.90;;
16957;SDS011;8595;52.542;11.974;2023-05-14T03:07:22;11.75;;;9.20;;
16957;SDS011;8595;52.542;11.974;2023-05-14T03:09:50;11.75;;;9.52;;
16957;SDS011;8595;52.542;11.974;2023-05-14T03:12:17;10.60;;;9.60;;
16957;SDS011;8595;52.542;11.974;2023-05-14T03:14:44;10.70;;;9.50;;
16957;SDS011;8595;52.542;11.974;2023-05-14T03:17:10;11.43;;;10.23;;
16957;SDS011;8595;52.542;11.974;2023-05-14T03:19:38;12.88;;;10.07;;
16957;SDS011;8595;52.542;11.974;2023-05-14T03:22:05;12.48;;;9.77;;
16957;SDS011;8595;52.542;11.974;2023-05-14T03:24:32;11.30;;;10.20;;
16957;SDS011;8595;52.542;11.974;2023-05-14T03:26:59;12.75;;;10.23;;
16957;SDS011;8595;52.542;11.974;2023-05-14T03:29:26;13.07;;;9.95;;
16957;SDS011;8595;52.542;11.974;2023-05-14T03:31:53;10.95;;;9.85;;
16957;SDS011;8595;52.542;11.974;2023-05-14T03:34:20;12.93;;;10.35;;
16957;SDS011;8595;52.542;11.974;2023-05-14T03:36:49;10.93;;;9.80;;
16957;SDS011;8595;52.542;11.974;2023-05-14T03:39:16;12.05;;;10.85;;
16957;SDS011;8595;52.542;11.974;2023-05-14T03:41:43;10.98;;;9.90;;
16957;SDS011;8595;52.542;11.974;2023-05-14T03:44:10;10.73;;;9.63;;
16957;SDS011;8595;52.542;11.974;2023-05-14T03:46:37;15.15;;;10.05;;
16957;SDS011;8595;52.542;11.974;2023-05-14T03:49:05;10.30;;;9.25;;
16957;SDS011;8595;52.542;11.974;2023-05-14T03:51:32;10.90;;;9.80;;
16957;SDS011;8595;52.542;11.974;2023-05-14T03:54:00;12.20;;;9.75;;
16957;SDS011;8595;52.542;11.974;2023-05-14T03:56:27;12.32;;;10.13;;
16957;SDS011;8595;52.542;11.974;2023-05-14T03:58:54;11.32;;;10.23;;
16957;SDS011;8595;52.542;11.974;2023-05-14T04:01:21;11.48;;;9.75;;
16957;SDS011;8595;52.542;11.974;2023-05-14T04:03:48;11.52;;;10.32;;
16957;SDS011;8595;52.542;11.974;2023-05-14T04:06:15;10.50;;;9.48;;
16957;SDS011;8595;52.542;11.974;2023-05-14T04:08:41;11.27;;;10.18;;
16957;SDS011;8595;52.542;11.974;2023-05-14T04:11:09;10.40;;;9.40;;
16957;SDS011;8595;52.542;11.974;2023-05-14T04:13:36;10.80;;;9.70;;
16957;SDS011;8595;52.542;11.974;2023-05-14T04:16:03;11.73;;;10.43;;
16957;SDS011;8595;52.542;11.974;2023-05-14T04:18:31;12.35;;;11.02;;
16957;SDS011;8595;52.542;11.974;2023-05-14T04:20:59;16.75;;;11.70;;
16957;SDS011;8595;52.542;11.974;2023-05-14T04:23:26;16.33;;;12.20;;
16957;SDS011;8595;52.542;11.974;2023-05-14T04:25:54;13.07;;;11.35;;
16957;SDS011;8595;52.542;11.974;2023-05-14T04:28:22;12.52;;;11.20;;
16957;SDS011;8595;52.542;11.974;2023-05-14T04:30:49;12.90;;;11.60;;
16957;SDS011;8595;52.542;11.974;2023-05-14T04:33:16;13.63;;;10.60;;
16957;SDS011;8595;52.542;11.974;2023-05-14T04:35:43;12.13;;;10.93;;
16957;SDS011;8595;52.542;11.974;2023-05-14T04:38:10;12.68;;;11.48;;
16957;SDS011;8595;52.542;11.974;2023-05-14T04:40:38;12.48;;;11.35;;
16957;SDS011;8595;52.542;11.974;2023-05-14T04:43:05;13.25;;;11.88;;
16957;SDS011;8595;52.542;11.974;2023-05-14T04:45:34;14.43;;;10.77;;
16957;SDS011;8595;52.542;11.974;2023-05-14T04:48:01;13.05;;;11.48;;
16957;SDS011;8595;52.542;11.974;2023-05-14T04:50:27;12.27;;;10.57;;
16957;SDS011;8595;52.542;11.974;2023-05-14T04:52:54;13.80;;;11.85;;
16957;SDS011;8595;52.542;11.974;2023-05-14T04:55:21;12.32;;;11.00;;
16957;SDS011;8595;52.542;11.974;2023-05-14T04:57:48;12.98;;;11.60;;
16957;SDS011;8595;52.542;11.974;2023-05-14T05:00:14;14.15;;;11.40;;
16957;SDS011;8595;52.542;11.974;2023-05-14T05:02:43;16.33;;;11.63;;
16957;SDS011;8595;52.542;11.974;2023-05-14T05:05:11;12.88;;;11.52;;
16957;SDS011;8595;52.542;11.974;2023-05-14T05:07:38;19.10;;;11.93;;
16957;SDS011;8595;52.542;11.974;2023-05-14T05:10:05;12.68;;;10.82;;
16957;SDS011;8595;52.542;11.974;2023-05-14T05:12:33;12.73;;;11.43;;
16957;SDS011;8595;52.542;11.974;2023-05-14T05:14:59;12.30;;;10.77;;
16957;SDS011;8595;52.542;11.974;2023-05-14T05:17:27;12.55;;;11.25;;
16957;SDS011;8595;52.542;11.974;2023-05-14T05:19:56;13.77;;;11.18;;
16957;SDS011;8595;52.542;11.974;2023-05-14T05:22:23;13.05;;;11.75;;
16957;SDS011;8595;52.542;11.974;2023-05-14T05:24:51;16.33;;;11.35;;
16957;SDS011;8595;52.542;11.974;2023-05-14T05:27:20;13.38;;;11.48;;
16957;SDS011;8595;52.542;11.974;2023-05-14T05:29:47;14.88;;;11.63;;
16957;SDS011;8595;52.542;11.974;2023-05-14T05:32:14;12.85;;;11.55;;
16957;SDS011;8595;52.542;11.974;2023-05-14T05:34:40;16.10;;;12.15;;
16957;SDS011;8595;52.542;11.974;2023-05-14T05:37:08;12.60;;;11.30;;
16957;SDS011;8595;52.542;11.974;2023-05-14T05:39:37;13.30;;;11.98;;
16957;SDS011;8595;52.542;11.974;2023-05-14T05:42:04;12.48;;;11.18;;
16957;SDS011;8595;52.542;11.974;2023-05-14T05:44:31;12.38;;;10.70;;
16957;SDS011;8595;52.542;11.974;2023-05-14T05:46:58;12.23;;;11.02;;
16957;SDS011;8595;52.542;11.974;2023-05-14T05:49:25;13.93;;;10.57;;
16957;SDS011;8595;52.542;11.974;2023-05-14T05:51:52;12.25;;;10.95;;
16957;SDS011;8595;52.542;11.974;2023-05-14T05:54:21;11.82;;;10.63;;
16957;SDS011;8595;52.542;11.974;2023-05-14T05:56:48;13.43;;;11.02;;
16957;SDS011;8595;52.542;11.974;2023-05-14T05:59:15;12.65;;;10.70;;
16957;SDS011;8595;52.542;11.974;2023-05-14T06:01:41;13.73;;;11.38;;
16957;SDS011;8595;52.542;11.974;2023-05-14T06:04:08;14.15;;;11.98;;
16957;SDS011;8595;52.542;11.974;2023-05-14T06:06:35;11.63;;;10.52;;
16957;SDS011;8595;52.542;11.974;2023-05-14T06:09:01;11.73;;;10.52;;
16957;SDS011;8595;52.542;11.974;2023-05-14T06:11:30;12.77;;;10.60;;
16957;SDS011;8595;52.542;11.974;2023-05-14T06:13:57;12.07;;;10.85;;
16957;SDS011;8595;52.542;11.974;2023-05-14T06:16:23;13.85;;;11.23;;
16957;SDS011;8595;52.542;11.974;2023-05-14T06:18:50;13.07;;;11.63;;
16957;SDS011;8595;52.542;11.974;2023-05-14T06:21:19;13.60;;;12.05;;
16957;SDS011;8595;52.542;11.974;2023-05-14T06:23:46;12.90;;;11.35;;
16957;SDS011;8595;52.542;11.974;2023-05-14T06:26:13;14.88;;;11.60;;
16957;SDS011;8595;52.542;11.974;2023-05-14T06:28:41;14.43;;;11.77;;
16957;SDS011;8595;52.542;11.974;2023-05-14T06:31:07;12.30;;;11.10;;
16957;SDS011;8595;52.542;11.974;2023-05-14T06:33:34;13.20;;;11.85;;
16957;SDS011;8595;52.542;11.974;2023-05-14T06:36:02;16.35;;;11.35;;
16957;SDS011;8595;52.542;11.974;2023-05-14T06:38:29;11.73;;;10.60;;
16957;SDS011;8595;52.542;11.974;2023-05-14T06:40:56;12.75;;;11.02;;
16957;SDS011;8595;52.542;11.974;2023-05-14T06:43:23;11.55;;;10.40;;
16957;SDS011;8595;52.542;11.974;2023-05-14T06:45:51;12.15;;;9.80;;
16957;SDS011;8595;52.542;11.974;2023-05-14T06:48:18;14.70;;;10.48;;
16957;SDS011;8595;52.542;11.974;2023-05-14T06:50:45;11.93;;;10.70;;
16957;SDS011;8595;52.542;11.974;2023-05-14T06:53:12;11.07;;;9.23;;
16957;SDS011;8595;52.542;11.974;2023-05-14T06:55:40;11.50;;;10.30;;
16957;SDS011;8595;52.542;11.974;2023-05-14T06:58:06;11.52;;;10.32;;
16957;SDS011;8595;52.542;11.974;2023-05-14T07:00:33;14.63;;;10.30;;
16957;SDS011;8595;52.542;11.974;2023-05-14T07:03:02;11.20;;;9.93;;
16957;SDS011;8595;52.542;11.974;2023-05-14T07:05:28;10.73;;;9.63;;
16957;SDS011;8595;52.542;11.974;2023-05-14T07:07:55;10.15;;;8.85;;
16957;SDS011;8595;52.542;11.974;2023-05-14T07:10:22;11.18;;;9.85;;
16957;SDS011;8595;52.542;11.974;2023-05-14T07:12:49;13.85;;;10.05;;
16957;SDS011;8595;52.542;11.974;2023-05-14T07:15:15;10.32;;;8.27;;
16957;SDS011;8595;52.542;11.974;2023-05-14T07:17:42;10.95;;;8.93;;
16957;SDS011;8595;52.542;11.974;2023-05-14T07:20:11;10.10;;;8.50;;
16957;SDS011;8595;52.542;11.974;2023-05-14T07:22:38;9.35;;;8.38;;
16957;SDS011;8595;52.542;11.974;2023-05-14T07:25:05;11.38;;;8.82;;
16957;SDS011;8595;52.542;11.974;2023-05-14T07:27:32;8.85;;;7.95;;
16957;SDS011;8595;52.542;11.974;2023-05-14T07:29:58;9.50;;;8.30;;
16957;SDS011;8595;52.542;11.974;2023-05-14T07:32:25;12.02;;;7.95;;
16957;SDS011;8595;52.542;11.974;2023-05-14T07:34:52;9.00;;;8.10;;
16957;SDS011;8595;52.542;11.974;2023-05-14T07:37:20;8.95;;;7.20;;
16957;SDS011;8595;52.542;11.974;2023-05-14T07:39:47;10.52;;;8.00;;
16957;SDS011;8595;52.542;11.974;2023-05-14T07:42:13;8.40;;;7.55;;
16957;SDS011;8595;52.542;11.974;2023-05-14T07:44:40;10.38;;;7.75;;
16957;SDS011;8595;52.542;11.974;2023-05-14T07:47:07;10.57;;;7.15;;
16957;SDS011;8595;52.542;11.974;2023-05-14T07:49:34;7.68;;;6.97;;
16957;SDS011;8595;52.542;11.974;2023-05-14T07:52:03;11.43;;;6.53;;
16957;SDS011;8595;52.542;11.974;2023-05-14T07:54:31;10.40;;;6.75;;
16957;SDS011;8595;52.542;11.974;2023-05-14T07:56:58;8.10;;;6.10;;
16957;SDS011;8595;52.542;11.974;2023-05-14T07:59:25;6.10;;;5.55;;
16957;SDS011;8595;52.542;11.974;2023-05-14T08:01:51;7.15;;;5.50;;
16957;SDS011;8595;52.542;11.974;2023-05-14T08:04:18;9.45;;;6.38;;
16957;SDS011;8595;52.542;11.974;2023-05-14T08:06:47;9.43;;;7.22;;
16957;SDS011;8595;52.542;11.974;2023-05-14T08:09:14;10.02;;;5.45;;
16957;SDS011;8595;52.542;11.974;2023-05-14T08:11:42;8.82;;;6.93;;
16957;SDS011;8595;52.542;11.974;2023-05-14T08:14:09;5.65;;;5.10;;
16957;SDS011;8595;52.542;11.974;2023-05-14T08:16:36;7.63;;;5.45;;
16957;SDS011;8595;52.542;11.974;2023-05-14T08:19:03;8.82;;;5.82;;
16957;SDS011;8595;52.542;11.974;2023-05-14T08:21:30;11.55;;;6.07;;
16957;SDS011;8595;52.542;11.974;2023-05-14T08:23:56;8.93;;;5.68;;
16957;SDS011;8595;52.542;11.974;2023-05-14T08:26:23;9.60;;;5.80;;
16957;SDS011;8595;52.542;11.974;2023-05-14T08:28:51;12.02;;;6.07;;
16957;SDS011;8595;52.542;11.974;2023-05-14T08:31:18;7.43;;;5.63;;
16957;SDS011;8595;52.542;11.974;2023-05-14T08:33:45;8.05;;;5.55;;
16957;SDS011;8595;52.542;11.974;2023-05-14T08:36:12;8.15;;;5.95;;
16957;SDS011;8595;52.542;11.974;2023-05-14T08:38:39;7.10;;;6.40;;
16957;SDS011;8595;52.542;11.974;2023-05-14T08:41:06;12.25;;;5.97;;
16957;SDS011;8595;52.542;11.974;2023-05-14T08:43:36;9.13;;;6.55;;
16957;SDS011;8595;52.542;11.974;2023-05-14T08:46:10;10.85;;;5.80;;
16957;SDS011;8595;52.542;11.974;2023-05-14T08:48:39;8.00;;;5.55;;
16957;SDS011;8595;52.542;11.974;2023-05-14T08:51:08;9.63;;;5.68;;
16957;SDS011;8595;52.542;11.974;2023-05-14T08:53:35;6.88;;;5.60;;
16957;SDS011;8595;52.542;11.974;2023-05-14T08:56:04;7.15;;;5.80;;
16957;SDS011;8595;52.542;11.974;2023-05-14T08:58:32;9.50;;;5.18;;
16957;SDS011;8595;52.542;11.974;2023-05-14T09:00:59;7.70;;;5.15;;
16957;SDS011;8595;52.542;11.974;2023-05-14T09:03:27;7.47;;;4.75;;
16957;SDS011;8595;52.542;11.974;2023-05-14T09:05:55;6.93;;;4.57;;
16957;SDS011;8595;52.542;11.974;2023-05-14T09:08:23;5.80;;;4.60;;
16957;SDS011;8595;52.542;11.974;2023-05-14T09:10:49;9.25;;;4.68;;
16957;SDS011;8595;52.542;11.974;2023-05-14T09:13:16;7.93;;;4.75;;
16957;SDS011;8595;52.542;11.974;2023-05-14T09:15:43;6.85;;;4.78;;
16957;SDS011;8595;52.542;11.974;2023-05-14T09:18:11;5.65;;;4.68;;
16957;SDS011;8595;52.542;11.974;2023-05-14T09:20:39;6.45;;;4.32;;
16957;SDS011;8595;52.542;11.974;2023-05-14T09:23:06;10.02;;;5.05;;
16957;SDS011;8595;52.542;11.974;2023-05-14T09:25:33;7.82;;;4.55;;
16957;SDS011;8595;52.542;11.974;2023-05-14T09:28:00;7.38;;;4.38;;
16957;SDS011;8595;52.542;11.974;2023-05-14T09:30:31;7.47;;;4.68;;
16957;SDS011;8595;52.542;11.974;2023-05-14T09:32:58;5.45;;;4.47;;
16957;SDS011;8595;52.542;11.974;2023-05-14T09:35:25;11.90;;;4.15;;
16957;SDS011;8595;52.542;11.974;2023-05-14T09:37:54;5.30;;;3.60;;
16957;SDS011;8595;52.542;11.974;2023-05-14T09:40:21;5.15;;;3.53;;
16957;SDS011;8595;52.542;11.974;2023-05-14T09:42:49;8.07;;;4.15;;
16957;SDS011;8595;52.542;11.974;2023-05-14T09:45:16;4.95;;;3.90;;
16957;SDS011;8595;52.542;11.974;2023-05-14T09:47:43;7.38;;;4.20;;
16957;SDS011;8595;52.542;11.974;2023-05-14T09:50:09;4.13;;;3.70;;
16957;SDS011;8595;52.542;11.974;2023-05-14T09:52:36;5.40;;;3.83;;
16957;SDS011;8595;52.542;11.974;2023-05-14T09:55:05;10.02;;;4.07;;
16957;SDS011;8595;52.542;11.974;2023-05-14T09:57:33;7.55;;;4.85;;
16957;SDS011;8595;52.542;11.974;2023-05-14T10:00:00;10.52;;;4.93;;
16957;SDS011;8595;52.542;11.974;2023-05-14T10:02:29;11.45;;;4.57;;
16957;SDS011;8595;52.542;11.974;2023-05-14T10:05:01;12.52;;;4.43;;
16957;SDS011;8595;52.542;11.974;2023-05-14T10:07:31;7.82;;;3.67;;
16957;SDS011;8595;52.542;11.974;2023-05-14T10:10:00;8.98;;;4.15;;
16957;SDS011;8595;52.542;11.974;2023-05-14T10:12:35;8.27;;;4.10;;
16957;SDS011;8595;52.542;11.974;2023-05-14T10:15:08;8.88;;;5.55;;
16957;SDS011;8595;52.542;11.974;2023-05-14T10:17:42;14.32;;;5.88;;
16957;SDS011;8595;52.542;11.974;2023-05-14T10:20:13;12.30;;;4.78;;
16957;SDS011;8595;52.542;11.974;2023-05-14T10:22:41;6.10;;;4.22;;
16957;SDS011;8595;52.542;11.974;2023-05-14T10:25:08;9.32;;;4.93;;
16957;SDS011;8595;52.542;11.974;2023-05-14T10:27:37;15.35;;;7.43;;
16957;SDS011;8595;52.542;11.974;2023-05-14T10:30:05;18.48;;;8.30;;
16957;SDS011;8595;52.542;11.974;2023-05-14T10:32:36;10.90;;;6.43;;
16957;SDS011;8595;52.542;11.974;2023-05-14T10:35:14;5.03;;;4.45;;
16957;SDS011;8595;52.542;11.974;2023-05-14T10:37:43;7.88;;;4.55;;
16957;SDS011;8595;52.542;11.974;2023-05-14T10:40:11;7.90;;;5.35;;
16957;SDS011;8595;52.542;11.974;2023-05-14T10:42:39;10.45;;;5.93;;
16957;SDS011;8595;52.542;11.974;2023-05-14T10:45:09;6.47;;;4.95;;
16957;SDS011;8595;52.542;11.974;2023-05-14T10:47:40;11.30;;;6.55;;
16957;SDS011;8595;52.542;11.974;2023-05-14T10:50:09;10.07;;;6.32;;
16957;SDS011;8595;52.542;11.974;2023-05-14T10:52:36;18.90;;;7.45;;
16957;SDS011;8595;52.542;11.974;2023-05-14T10:55:05;10.82;;;4.88;;
16957;SDS011;8595;52.542;11.974;2023-05-14T10:57:37;10.07;;;5.60;;
16957;SDS011;8595;52.542;11.974;2023-05-14T11:00:07;10.70;;;6.25;;
16957;SDS011;8595;52.542;11.974;2023-05-14T11:02:37;9.73;;;6.75;;
16957;SDS011;8595;52.542;11.974;2023-05-14T11:05:05;13.77;;;5.82;;
16957;SDS011;8595;52.542;11.974;2023-05-14T11:07:35;11.63;;;5.63;;
16957;SDS011;8595;52.542;11.974;2023-05-14T11:10:04;7.90;;;5.93;;
16957;SDS011;8595;52.542;11.974;2023-05-14T11:12:31;18.42;;;7.97;;
16957;SDS011;8595;52.542;11.974;2023-05-14T11:15:01;10.02;;;5.25;;
16957;SDS011;8595;52.542;11.974;2023-05-14T11:17:29;9.27;;;4.78;;
16957;SDS011;8595;52.542;11.974;2023-05-14T11:19:57;5.85;;;4.85;;
16957;SDS011;8595;52.542;11.974;2023-05-14T11:22:25;8.25;;;4.40;;
16957;SDS011;8595;52.542;11.974;2023-05-14T11:24:51;5.55;;;4.03;;
16957;SDS011;8595;52.542;11.974;2023-05-14T11:27:19;18.65;;;5.43;;
16957;SDS011;8595;52.542;11.974;2023-05-14T11:29:48;8.55;;;4.70;;
16957;SDS011;8595;52.542;11.974;2023-05-14T11:32:17;9.63;;;5.32;;
16957;SDS011;8595;52.542;11.974;2023-05-14T11:34:44;8.35;;;4.80;;
16957;SDS011;8595;52.542;11.974;2023-05-14T11:37:13;8.65;;;5.38;;
16957;SDS011;8595;52.542;11.974;2023-05-14T11:39:45;4.32;;;3.92;;
16957;SDS011;8595;52.542;11.974;2023-05-14T11:42:14;8.95;;;4.60;;
16957;SDS011;8595;52.542;11.974;2023-05-14T11:44:43;4.63;;;3.83;;
16957;SDS011;8595;52.542;11.974;2023-05-14T11:47:10;6.15;;;3.92;;
16957;SDS011;8595;52.542;11.974;2023-05-14T11:49:40;8.38;;;4.10;;
16957;SDS011;8595;52.542;11.974;2023-05-14T11:52:07;8.82;;;4.15;;
16957;SDS011;8595;52.542;11.974;2023-05-14T11:54:37;6.68;;;4.78;;
16957;SDS011;8595;52.542;11.974;2023-05-14T11:57:07;8.20;;;4.75;;
16957;SDS011;8595;52.542;11.974;2023-05-14T11:59:35;7.80;;;4.80;;
16957;SDS011;8595;52.542;11.974;2023-05-14T12:02:02;10.07;;;5.55;;
16957;SDS011;8595;52.542;11.974;2023-05-14T12:04:31;6.22;;;4.65;;
16957;SDS011;8595;52.542;11.974;2023-05-14T12:07:03;5.47;;;4.03;;
16957;SDS011;8595;52.542;11.974;2023-05-14T12:09:35;8.45;;;4.72;;
16957;SDS011;8595;52.542;11.974;2023-05-14T12:12:07;5.00;;;4.35;;
16957;SDS011;8595;52.542;11.974;2023-05-14T12:14:36;8.02;;;4.40;;
16957;SDS011;8595;52.542;11.974;2023-05-14T12:17:08;5.43;;;4.10;;
16957;SDS011;8595;52.542;11.974;2023-05-14T12:19:40;6.75;;;4.50;;
16957;SDS011;8595;52.542;11.974;2023-05-14T12:22:09;4.72;;;4.13;;
16957;SDS011;8595;52.542;11.974;2023-05-14T12:24:37;7.28;;;4.57;;
16957;SDS011;8595;52.542;11.974;2023-05-14T12:27:05;7.03;;;4.80;;
16957;SDS011;8595;52.542;11.974;2023-05-14T12:29:35;8.27;;;4.35;;
16957;SDS011;8595;52.542;11.974;2023-05-14T12:32:06;7.50;;;4.38;;
16957;SDS011;8595;52.542;11.974;2023-05-14T12:34:34;9.00;;;5.20;;
16957;SDS011;8595;52.542;11.974;2023-05-14T12:37:01;5.75;;;4.43;;
16957;SDS011;8595;52.542;11.974;2023-05-14T12:39:31;5.68;;;4.60;;
16957;SDS011;8595;52.542;11.974;2023-05-14T12:41:59;6.32;;;4.20;;
16957;SDS011;8595;52.542;11.974;2023-05-14T12:44:26;6.60;;;4.53;;
16957;SDS011;8595;52.542;11.974;2023-05-14T12:46:53;5.05;;;4.50;;
16957;SDS011;8595;52.542;11.974;2023-05-14T12:49:20;6.93;;;4.28;;
16957;SDS011;8595;52.542;11.974;2023-05-14T12:51:46;5.47;;;4.10;;
16957;SDS011;8595;52.542;11.974;2023-05-14T12:54:13;6.55;;;4.38;;
16957;SDS011;8595;52.542;11.974;2023-05-14T12:56:43;5.32;;;3.92;;
16957;SDS011;8595;52.542;11.974;2023-05-14T12:59:09;5.45;;;4.07;;
16957;SDS011;8595;52.542;11.974;2023-05-14T13:01:36;7.88;;;6.63;;
16957;SDS011;8595;52.542;11.974;2023-05-14T13:04:03;7.15;;;5.05;;
16957;SDS011;8595;52.542;11.974;2023-05-14T13:06:30;8.57;;;5.20;;
16957;SDS011;8595;52.542;11.974;2023-05-14T13:08:57;6.03;;;4.55;;
16957;SDS011;8595;52.542;11.974;2023-05-14T13:11:26;5.40;;;4.60;;
16957;SDS011;8595;52.542;11.974;2023-05-14T13:13:57;6.97;;;4.85;;
16957;SDS011;8595;52.542;11.974;2023-05-14T13:16:24;26.95;;;19.00;;
16957;SDS011;8595;52.542;11.974;2023-05-14T13:18:51;13.52;;;8.77;;
16957;SDS011;8595;52.542;11.974;2023-05-14T13:21:18;6.53;;;4.72;;
16957;SDS011;8595;52.542;11.974;2023-05-14T13:23:45;8.50;;;4.78;;
16957;SDS011;8595;52.542;11.974;2023-05-14T13:26:11;8.82;;;4.20;;
16957;SDS011;8595;52.542;11.974;2023-05-14T13:28:38;6.50;;;4.30;;
16957;SDS011;8595;52.542;11.974;2023-05-14T13:31:07;10.20;;;6.95;;
16957;SDS011;8595;52.542;11.974;2023-05-14T13:33:35;30.25;;;22.67;;
16957;SDS011;8595;52.542;11.974;2023-05-14T13:36:04;9.93;;;4.70;;
16957;SDS011;8595;52.542;11.974;2023-05-14T13:38:32;7.28;;;4.25;;
16957;SDS011;8595;52.542;11.974;2023-05-14T13:40:59;5.85;;;3.80;;
16957;SDS011;8595;52.542;11.974;2023-05-14T13:43:27;6.72;;;4.15;;
16957;SDS011;8595;52.542;11.974;2023-05-14T13:45:56;6.28;;;4.35;;
16957;SDS011;8595;52.542;11.974;2023-05-14T13:48:24;8.02;;;4.35;;
16957;SDS011;8595;52.542;11.974;2023-05-14T13:50:55;6.50;;;4.68;;
16957;SDS011;8595;52.542;11.974;2023-05-14T13:53:22;5.20;;;3.90;;
16957;SDS011;8595;52.542;11.974;2023-05-14T13:55:52;7.18;;;4.47;;
16957;SDS011;8595;52.542;11.974;2023-05-14T13:58:22;8.38;;;4.53;;
16957;SDS011;8595;52.542;11.974;2023-05-14T14:00:49;5.82;;;4.15;;
16957;SDS011;8595;52.542;11.974;2023-05-14T14:03:16;6.07;;;4.18;;
16957;SDS011;8595;52.542;11.974;2023-05-14T14:05:44;7.22;;;4.55;;
16957;SDS011;8595;52.542;11.974;2023-05-14T14:08:11;6.38;;;3.92;;
16957;SDS011;8595;52.542;11.974;2023-05-14T14:10:38;5.55;;;3.92;;
16957;SDS011;8595;52.542;11.974;2023-05-14T14:13:06;13.98;;;4.40;;
16957;SDS011;8595;52.542;11.974;2023-05-14T14:15:33;5.55;;;4.30;;
16957;SDS011;8595;52.542;11.974;2023-05-14T14:18:00;5.15;;;4.15;;
16957;SDS011;8595;52.542;11.974;2023-05-14T14:20:26;6.07;;;4.40;;
16957;SDS011;8595;52.542;11.974;2023-05-14T14:22:55;6.43;;;3.85;;
16957;SDS011;8595;52.542;11.974;2023-05-14T14:25:22;8.57;;;4.40;;
16957;SDS011;8595;52.542;11.974;2023-05-14T14:27:48;6.13;;;3.80;;
16957;SDS011;8595;52.542;11.974;2023-05-14T14:30:15;8.98;;;4.32;;
16957;SDS011;8595;52.542;11.974;2023-05-14T14:32:43;5.28;;;3.70;;
16957;SDS011;8595;52.542;11.974;2023-05-14T14:35:11;4.63;;;3.80;;
16957;SDS011;8595;52.542;11.974;2023-05-14T14:37:39;6.57;;;4.00;;
16957;SDS011;8595;52.542;11.974;2023-05-14T14:40:07;7.90;;;3.50;;
16957;SDS011;8595;52.542;11.974;2023-05-14T14:42:35;9.02;;;3.53;;